Time;durP1;ratioP1;P1;durP2;ratioP2;P2;SDS_P1;SDS_P2;PMS_P1;PMS_P2;Temp;Humidity;BMP_temperature;BMP_pressure;BME280_temperature;BME280_humidity;BME280_pressure;Samples;Min_cycle;Max_cycle;Signal;HPM_P1;HPM_P2
2021/04/09 00:00:21;;;;;;;5.63;3.15;;;;;;;0.48;50.98;93208.78;2075151;69;20154;-72
2021/04/09 00:02:47;;;;;;;7.40;3.35;;;;;;;0.48;50.19;93203.25;2075133;69;20234;-69
2021/04/09 00:05:17;;;;;;;7.57;3.92;;;;;;;0.33;51.59;93216.16;2075360;69;20257;-73
2021/04/09 00:07:43;;;;;;;7.72;3.95;;;;;;;0.36;52.91;93206.75;2075436;69;20156;-72
2021/04/09 00:10:09;;;;;;;6.15;3.35;;;;;;;0.37;51.26;93205.50;2075313;69;20156;-72
2021/04/09 00:12:37;;;;;;;5.70;3.60;;;;;;;0.54;51.08;93200.38;2069123;69;20167;-70
2021/04/09 00:15:05;;;;;;;7.43;3.65;;;;;;;0.16;51.81;93202.59;2075090;69;20124;-71
2021/04/09 00:17:31;;;;;;;7.40;3.55;;;;;;;0.42;52.21;93201.88;2075165;69;20194;-72
2021/04/09 00:19:56;;;;;;;8.40;3.35;;;;;;;0.50;50.80;93199.94;2075094;69;20194;-71
2021/04/09 00:22:22;;;;;;;5.40;3.30;;;;;;;0.34;50.91;93201.75;2075067;69;20159;-70
2021/04/09 00:24:48;;;;;;;5.30;3.20;;;;;;;0.40;51.72;93202.41;2074991;69;20159;-70
2021/04/09 00:27:13;;;;;;;10.88;3.60;;;;;;;0.56;50.74;93202.63;2071700;69;20175;-68
2021/04/09 00:29:39;;;;;;;7.07;3.35;;;;;;;0.32;50.64;93195.25;2074972;69;20148;-68
2021/04/09 00:32:08;;;;;;;7.25;3.20;;;;;;;0.44;51.06;93204.84;2071678;69;20159;-68
2021/04/09 00:34:34;;;;;;;6.55;2.78;;;;;;;0.47;50.74;93201.03;2074966;69;20236;-69
2021/04/09 00:37:00;;;;;;;4.47;2.80;;;;;;;0.42;49.48;93190.81;2074893;69;20148;-70
2021/04/09 00:39:25;;;;;;;5.65;3.25;;;;;;;0.48;49.36;93185.88;2074842;69;20187;-69
2021/04/09 00:41:51;;;;;;;6.07;2.63;;;;;;;0.15;49.90;93196.31;2074984;69;20505;-69
2021/04/09 00:44:16;;;;;;;5.80;2.90;;;;;;;0.29;50.44;93193.56;2074933;69;20158;-69
2021/04/09 00:46:42;;;;;;;5.72;3.00;;;;;;;0.21;50.59;93185.13;2071567;69;20243;-68
2021/04/09 00:49:08;;;;;;;5.60;3.20;;;;;;;0.39;50.56;93183.53;2071867;69;20590;-71
2021/04/09 00:51:36;;;;;;;6.40;3.10;;;;;;;0.32;50.60;93190.47;2071866;69;20163;-69
2021/04/09 00:54:03;;;;;;;6.95;3.22;;;;;;;0.07;50.97;93186.41;2074793;69;20633;-69
2021/04/09 00:56:30;;;;;;;9.75;3.97;;;;;;;0.23;52.39;93194.41;2075038;69;20602;-70
2021/04/09 00:58:57;;;;;;;8.25;3.50;;;;;;;0.08;52.09;93199.72;2074976;69;20178;-72
2021/04/09 01:01:25;;;;;;;6.15;3.20;;;;;;;0.10;52.28;93197.19;2074735;69;20140;-71
2021/04/09 01:03:52;;;;;;;9.48;3.10;;;;;;;-0.02;52.05;93193.84;2075213;69;20210;-71
2021/04/09 01:06:19;;;;;;;7.07;3.97;;;;;;;0.11;52.21;93193.13;2075166;69;20606;-69
2021/04/09 01:08:46;;;;;;;7.63;3.95;;;;;;;0.16;51.54;93194.31;2075171;69;20152;-72
2021/04/09 01:11:12;;;;;;;7.80;3.20;;;;;;;0.16;51.99;93189.50;2075199;69;20541;-72
2021/04/09 01:13:39;;;;;;;7.22;3.70;;;;;;;-0.06;51.47;93181.59;2075291;69;20662;-73
2021/04/09 01:16:13;;;;;;;8.30;3.80;;;;;;;-0.04;52.00;93179.06;2075074;69;20135;-73
2021/04/09 01:19:06;;;;;;;6.97;2.97;;;;;;;0.00;52.05;93176.72;2071864;69;20137;-73
2021/04/09 01:21:53;;;;;;;5.90;3.33;;;;;;;0.05;50.73;93180.69;2071864;69;20218;-73
2021/04/09 01:24:47;;;;;;;7.15;2.78;;;;;;;0.20;50.40;93184.41;2075026;69;20155;-73
2021/04/09 01:27:51;;;;;;;8.13;2.80;;;;;;;0.24;50.38;93173.00;2074954;69;20163;-70
2021/04/09 01:30:52;;;;;;;9.88;3.35;;;;;;;-0.18;52.71;93177.53;2074766;69;20152;-67
2021/04/09 01:33:21;;;;;;;10.55;3.13;;;;;;;-0.17;51.96;93163.19;2071723;69;20606;-72
2021/04/09 01:35:52;;;;;;;9.30;2.92;;;;;;;-0.02;52.76;93166.16;2075037;69;20201;-73
2021/04/09 01:38:23;;;;;;;8.77;3.10;;;;;;;-0.08;51.06;93160.00;2074814;69;20689;-71
2021/04/09 01:40:51;;;;;;;6.25;3.00;;;;;;;-0.13;51.08;93162.88;2071344;69;20159;-72
2021/04/09 01:43:20;;;;;;;5.18;2.92;;;;;;;-0.21;52.47;93159.22;2074776;69;20278;-69
2021/04/09 01:45:49;;;;;;;5.75;3.05;;;;;;;-0.09;53.06;93150.22;2071490;69;20147;-70
2021/04/09 01:48:16;;;;;;;9.13;3.20;;;;;;;-0.15;53.34;93152.31;2074713;69;20156;-69
2021/04/09 01:50:42;;;;;;;5.78;2.78;;;;;;;-0.02;51.22;93155.09;2074647;69;20148;-69
2021/04/09 01:53:11;;;;;;;11.15;2.80;;;;;;;-0.01;51.63;93151.03;2074901;69;20172;-71
2021/04/09 01:55:47;;;;;;;4.35;2.60;;;;;;;0.03;51.59;93150.00;2075069;69;20538;-69
2021/04/09 01:58:15;;;;;;;4.00;2.80;;;;;;;-0.08;51.07;93154.47;2074993;69;20230;-71
2021/04/09 02:00:40;;;;;;;6.97;3.00;;;;;;;0.07;51.23;93150.41;2074950;69;20124;-70
2021/04/09 02:03:07;;;;;;;7.25;3.00;;;;;;;-0.07;52.13;93150.41;2075194;69;20136;-70
2021/04/09 02:05:33;;;;;;;5.53;2.58;;;;;;;0.01;51.85;93156.06;2075110;69;20239;-70
2021/04/09 02:08:02;;;;;;;6.05;2.70;;;;;;;-0.43;52.63;93161.09;2075121;69;20140;-71
2021/04/09 02:10:28;;;;;;;5.70;2.90;;;;;;;-0.15;53.16;93157.09;2075189;69;20487;-71
2021/04/09 02:12:55;;;;;;;7.85;3.30;;;;;;;-0.13;52.38;93157.34;2075181;69;20242;-70
2021/04/09 02:15:23;;;;;;;5.53;2.70;;;;;;;-0.13;52.38;93158.06;2075072;69;20243;-71
2021/04/09 02:17:49;;;;;;;10.30;3.55;;;;;;;-0.19;53.81;93153.91;2075164;69;20140;-70
2021/04/09 02:20:17;;;;;;;6.90;3.22;;;;;;;-0.08;52.64;93146.16;2075108;69;20591;-71
2021/04/09 02:22:47;;;;;;;9.27;3.05;;;;;;;0.03;52.87;93164.56;2075063;69;20580;-70
2021/04/09 02:25:18;;;;;;;10.77;3.17;;;;;;;-0.32;52.60;93154.63;2075178;69;20144;-71
2021/04/09 02:27:44;;;;;;;6.78;2.90;;;;;;;-0.12;52.09;93154.03;2075339;69;20144;-71
2021/04/09 02:30:12;;;;;;;6.40;2.75;;;;;;;-0.15;52.12;93148.81;2075040;69;20142;-73
2021/04/09 02:32:38;;;;;;;7.63;3.00;;;;;;;-0.13;51.85;93135.94;2075194;69;20144;-70
2021/04/09 02:35:06;;;;;;;7.50;2.90;;;;;;;-0.09;51.36;93138.38;2071801;69;20148;-73
2021/04/09 02:37:32;;;;;;;7.80;2.70;;;;;;;-0.21;51.57;93139.84;2075100;69;20617;-73
2021/04/09 02:40:03;;;;;;;6.10;2.92;;;;;;;-0.20;51.82;93139.31;2075135;69;20168;-72
2021/04/09 02:42:29;;;;;;;5.80;2.80;;;;;;;-0.27;52.67;93142.72;2071862;69;20490;-71
2021/04/09 02:44:55;;;;;;;6.45;2.80;;;;;;;-0.33;51.40;93131.75;2074999;69;20698;-70
2021/04/09 02:47:26;;;;;;;9.18;2.90;;;;;;;-0.36;52.55;93129.31;2075120;69;20148;-70
2021/04/09 02:50:03;;;;;;;5.72;2.70;;;;;;;-0.37;51.20;93130.56;2071806;69;20670;-70
2021/04/09 02:52:33;;;;;;;5.88;2.80;;;;;;;-0.26;51.93;93136.66;2075234;69;20180;-70
2021/04/09 02:55:06;;;;;;;6.07;3.10;;;;;;;-0.34;52.68;93140.59;2075096;69;20205;-70
2021/04/09 02:57:34;;;;;;;;;;;;;;;-0.40;51.96;93134.41;2075449;69;20176;-70
2021/04/09 03:00:03;;;;;;;6.13;2.45;;;;;;;-0.26;51.38;93131.13;2075069;69;20131;-72
2021/04/09 03:02:32;;;;;;;7.03;2.60;;;;;;;-0.65;52.59;93131.03;2075199;69;20148;-70
2021/04/09 03:04:57;;;;;;;4.75;2.72;;;;;;;-0.52;52.88;93137.34;2068922;69;20225;-70
2021/04/09 03:07:23;;;;;;;5.05;2.95;;;;;;;-0.41;53.28;93136.44;2075329;69;20239;-72
2021/04/09 03:09:48;;;;;;;5.25;2.80;;;;;;;-0.42;53.29;93132.16;2075102;69;20132;-70
2021/04/09 03:12:19;;;;;;;6.88;2.97;;;;;;;-0.39;53.50;93133.13;2075191;69;20143;-70
2021/04/09 03:14:47;;;;;;;5.95;2.92;;;;;;;-0.61;52.54;93134.25;2074972;69;20151;-70
2021/04/09 03:17:25;;;;;;;6.70;3.15;;;;;;;-0.51;52.81;93129.78;2075020;69;20518;-70
2021/04/09 03:19:51;;;;;;;7.40;3.20;;;;;;;-0.42;52.94;93123.84;2071696;69;20822;-72
2021/04/09 03:22:17;;;;;;;8.82;3.10;;;;;;;-0.80;52.59;93123.25;2075070;69;20171;-71
2021/04/09 03:24:42;;;;;;;9.57;4.70;;;;;;;-0.72;54.49;93129.66;2071792;69;20148;-71
2021/04/09 03:27:09;;;;;;;5.80;3.55;;;;;;;-0.61;52.82;93129.47;2075056;69;20148;-70
2021/04/09 03:29:35;;;;;;;5.28;3.45;;;;;;;-0.66;53.98;93124.75;2074912;69;20181;-70
2021/04/09 03:32:01;;;;;;;6.75;3.95;;;;;;;-0.56;53.43;93130.63;2074979;69;20235;-71
2021/04/09 03:34:27;;;;;;;4.32;3.10;;;;;;;-0.53;52.49;93129.59;2075044;69;20148;-70
2021/04/09 03:36:53;;;;;;;5.28;3.35;;;;;;;-0.70;52.89;93131.88;2074940;69;20148;-69
2021/04/09 03:39:18;;;;;;;15.18;8.32;;;;;;;-1.10;54.13;93135.25;2075003;69;20163;-70
2021/04/09 03:41:45;;;;;;;17.63;7.18;;;;;;;-1.10;55.58;93140.78;2075112;69;20598;-70
2021/04/09 03:44:10;;;;;;;28.52;12.43;;;;;;;-0.88;55.26;93128.63;2074888;69;20152;-71
2021/04/09 03:46:36;;;;;;;42.60;19.77;;;;;;;-0.94;55.24;93125.22;2071611;69;20217;-71
2021/04/09 03:49:02;;;;;;;21.42;10.00;;;;;;;-0.81;54.27;93119.00;2074997;69;20159;-70
2021/04/09 03:51:30;;;;;;;26.88;12.93;;;;;;;-0.65;54.67;93125.50;2074991;69;20245;-70
2021/04/09 03:53:56;;;;;;;37.20;15.57;;;;;;;-0.74;54.71;93125.91;2074928;69;20256;-70
2021/04/09 03:56:21;;;;;;;25.38;11.95;;;;;;;-0.75;53.28;93130.69;2074944;69;20239;-70
2021/04/09 03:58:47;;;;;;;15.10;8.30;;;;;;;-0.74;53.90;93136.97;2074937;69;20235;-71
2021/04/09 04:01:12;;;;;;;14.90;6.80;;;;;;;-0.88;53.96;93134.16;2074870;69;20210;-70
2021/04/09 04:03:38;;;;;;;11.07;5.82;;;;;;;-0.85;53.18;93130.34;2074928;69;20231;-70
2021/04/09 04:06:04;;;;;;;10.15;5.22;;;;;;;-0.82;52.74;93129.31;2075040;69;20235;-70
2021/04/09 04:08:29;;;;;;;10.07;5.38;;;;;;;-0.65;53.00;93123.47;2074958;69;20150;-71
2021/04/09 04:10:55;;;;;;;12.50;4.60;;;;;;;-0.78;52.48;93126.22;2071713;69;20163;-70
2021/04/09 04:13:22;;;;;;;5.32;2.95;;;;;;;-0.75;52.31;93124.41;2071634;69;20188;-71
2021/04/09 04:15:48;;;;;;;2.75;1.92;;;;;;;-0.70;50.56;93115.28;2074851;69;20155;-70
2021/04/09 04:18:15;;;;;;;15.82;7.15;;;;;;;-0.79;51.80;93114.41;2074840;69;20505;-70
2021/04/09 04:20:40;;;;;;;7.53;4.47;;;;;;;-0.70;51.51;93124.31;2075028;69;20143;-70
2021/04/09 04:23:06;;;;;;;10.45;4.95;;;;;;;-1.03;51.85;93118.06;2075119;69;20167;-71
2021/04/09 04:25:32;;;;;;;21.70;11.70;;;;;;;-0.78;52.78;93126.97;2074927;69;20137;-69
2021/04/09 04:27:57;;;;;;;18.90;10.05;;;;;;;-0.78;52.07;93124.22;2075035;69;20148;-70
2021/04/09 04:30:23;;;;;;;18.95;9.63;;;;;;;-0.78;50.87;93126.97;2068628;69;20128;-73
2021/04/09 04:32:49;;;;;;;11.85;6.80;;;;;;;-0.69;51.12;93119.53;2074918;69;20214;-73
2021/04/09 04:35:15;;;;;;;13.63;7.00;;;;;;;-0.71;51.22;93125.59;2074883;69;20155;-72
2021/04/09 04:37:40;;;;;;;12.52;6.90;;;;;;;-0.73;52.35;93119.09;2074889;69;20578;-73
2021/04/09 04:40:07;;;;;;;14.13;7.38;;;;;;;-1.21;52.52;93124.34;2074870;69;20171;-71
2021/04/09 04:42:33;;;;;;;16.15;6.35;;;;;;;-1.04;53.51;93121.34;2071537;69;20154;-71
2021/04/09 04:44:59;;;;;;;24.42;13.88;;;;;;;-0.98;52.89;93122.00;2075025;69;20610;-71
2021/04/09 04:47:24;;;;;;;29.98;13.82;;;;;;;-1.00;53.49;93126.59;2075377;69;20503;-70
2021/04/09 04:49:50;;;;;;;13.43;6.68;;;;;;;-1.02;53.02;93124.31;2075372;69;20136;-71
2021/04/09 04:52:15;;;;;;;15.27;6.57;;;;;;;-0.79;52.69;93127.50;2075257;69;20152;-72
2021/04/09 04:54:41;;;;;;;14.48;8.18;;;;;;;-0.74;52.27;93118.34;2075356;69;20158;-71
2021/04/09 04:57:07;;;;;;;18.65;9.70;;;;;;;-0.95;52.48;93122.97;2075361;69;20167;-72
2021/04/09 04:59:33;;;;;;;12.20;6.03;;;;;;;-0.70;52.74;93126.34;2075258;69;20580;-70
2021/04/09 05:01:58;;;;;;;6.78;4.57;;;;;;;-0.70;52.33;93120.81;2075261;69;20223;-71
2021/04/09 05:04:24;;;;;;;13.13;6.50;;;;;;;-0.70;52.55;93129.13;2075448;69;20140;-70
2021/04/09 05:06:50;;;;;;;14.60;6.65;;;;;;;-0.86;51.98;93131.63;2075416;69;20144;-70
2021/04/09 05:09:16;;;;;;;20.63;7.72;;;;;;;-0.72;52.42;93131.66;2075509;69;20629;-72
2021/04/09 05:11:41;;;;;;;20.27;9.32;;;;;;;-0.50;52.08;93134.06;2075537;69;20233;-72
2021/04/09 05:14:07;;;;;;;17.38;6.32;;;;;;;-0.67;53.09;93136.38;2075178;69;20210;-70
2021/04/09 05:16:32;;;;;;;21.13;7.35;;;;;;;-0.58;52.72;93135.97;2075356;69;20156;-72
2021/04/09 05:18:58;;;;;;;23.77;11.27;;;;;;;-0.76;52.92;93129.22;2075359;69;20147;-72
2021/04/09 05:21:24;;;;;;;13.88;7.35;;;;;;;-0.54;52.61;93136.41;2075512;69;20151;-72
2021/04/09 05:23:50;;;;;;;15.85;6.07;;;;;;;-0.54;52.01;93133.63;2075215;69;20132;-73
2021/04/09 05:26:18;;;;;;;21.73;8.13;;;;;;;-0.55;51.98;93141.19;2071875;69;20603;-71
2021/04/09 05:28:44;;;;;;;21.05;8.40;;;;;;;-0.36;52.69;93138.34;2075345;69;20589;-72
2021/04/09 05:31:09;;;;;;;23.20;9.63;;;;;;;-0.42;52.34;93132.16;2075114;69;20217;-70
2021/04/09 05:33:35;;;;;;;18.27;9.50;;;;;;;-0.51;52.16;93130.53;2075363;69;20570;-70
2021/04/09 05:36:01;;;;;;;20.05;9.45;;;;;;;-0.51;52.25;93127.03;2075219;69;20174;-70
2021/04/09 05:38:28;;;;;;;12.68;5.07;;;;;;;-0.37;50.08;93128.53;2071743;69;20148;-69
2021/04/09 05:40:53;;;;;;;8.82;3.67;;;;;;;-0.23;48.17;93125.78;2075205;69;20154;-72
2021/04/09 05:43:19;;;;;;;21.15;8.48;;;;;;;-0.30;51.02;93130.69;2075282;69;20139;-72
2021/04/09 05:45:45;;;;;;;16.42;8.50;;;;;;;-0.11;50.43;93129.88;2075068;69;20140;-71
2021/04/09 05:48:11;;;;;;;16.30;8.95;;;;;;;-0.06;51.19;93126.25;2075193;69;20132;-72
2021/04/09 05:50:37;;;;;;;16.20;7.50;;;;;;;-0.22;51.58;93122.50;2071868;69;20618;-71
2021/04/09 05:53:03;;;;;;;20.25;8.90;;;;;;;-0.29;50.93;93131.44;2075293;69;20144;-70
2021/04/09 05:55:29;;;;;;;21.05;8.68;;;;;;;0.10;50.33;93124.44;2075213;69;20140;-70
2021/04/09 05:57:55;;;;;;;17.42;8.40;;;;;;;0.06;50.65;93127.53;2075296;69;20562;-70
2021/04/09 06:00:22;;;;;;;27.52;7.50;;;;;;;0.04;51.07;93127.31;2075065;69;20552;-71
2021/04/09 06:02:48;;;;;;;18.92;6.90;;;;;;;0.10;51.18;93121.69;2075264;69;20526;-72
2021/04/09 06:05:14;;;;;;;20.88;6.95;;;;;;;-0.01;51.27;93117.81;2075315;69;20147;-72
2021/04/09 06:07:39;;;;;;;24.35;7.38;;;;;;;0.15;51.45;93120.81;2071745;69;20143;-71
2021/04/09 06:10:06;;;;;;;17.90;7.15;;;;;;;0.32;50.36;93129.56;2075143;69;20150;-72
2021/04/09 06:12:32;;;;;;;17.35;7.30;;;;;;;0.30;50.48;93125.81;2075146;69;20136;-71
2021/04/09 06:14:58;;;;;;;18.13;7.05;;;;;;;0.44;50.23;93130.06;2071685;69;20179;-72
2021/04/09 06:17:24;;;;;;;18.90;6.65;;;;;;;0.27;50.11;93126.88;2075100;69;20603;-70
2021/04/09 06:19:50;;;;;;;10.45;5.20;;;;;;;0.36;50.28;93129.22;2075145;69;20223;-71
2021/04/09 06:22:16;;;;;;;18.88;5.53;;;;;;;0.30;50.11;93112.72;2075206;69;20617;-72
2021/04/09 06:24:42;;;;;;;22.70;8.02;;;;;;;0.10;50.25;93119.66;2071740;69;20128;-71
2021/04/09 06:27:08;;;;;;;27.98;7.25;;;;;;;0.41;50.12;93117.25;2075150;69;20143;-71
2021/04/09 06:29:34;;;;;;;17.50;7.97;;;;;;;0.43;49.81;93114.72;2071610;69;20235;-70
2021/04/09 06:31:59;;;;;;;26.08;11.30;;;;;;;0.41;50.13;93112.50;2075202;69;20217;-71
2021/04/09 06:34:25;;;;;;;18.25;9.70;;;;;;;0.57;49.64;93112.69;2075159;69;20147;-71
2021/04/09 06:36:50;;;;;;;18.63;7.88;;;;;;;0.55;50.25;93099.38;2075065;69;20163;-71
2021/04/09 06:39:16;;;;;;;23.70;10.35;;;;;;;0.33;50.64;93108.88;2075058;69;20262;-71
2021/04/09 06:41:42;;;;;;;16.90;8.25;;;;;;;0.58;49.01;93109.34;2075203;69;20571;-71
2021/04/09 06:44:08;;;;;;;23.83;10.65;;;;;;;0.81;49.99;93106.09;2075079;69;20150;-71
2021/04/09 06:46:34;;;;;;;20.70;8.57;;;;;;;0.86;48.87;93108.75;2075140;69;20148;-71
2021/04/09 06:49:00;;;;;;;19.50;8.30;;;;;;;1.18;50.19;93107.78;2075195;69;20220;-71
2021/04/09 06:51:27;;;;;;;14.70;3.67;;;;;;;1.92;43.74;93113.75;2068887;69;20681;-72
2021/04/09 06:53:53;;;;;;;4.57;2.58;;;;;;;2.24;42.32;93107.84;2075046;69;20230;-71
2021/04/09 06:56:22;;;;;;;9.75;3.97;;;;;;;3.04;41.92;93107.09;2071669;69;20140;-71
2021/04/09 06:58:49;;;;;;;6.88;3.47;;;;;;;3.77;40.84;93102.72;2071697;69;20135;-71
2021/04/09 07:01:20;;;;;;;7.55;3.13;;;;;;;4.31;41.74;93103.44;2074962;69;20147;-71
2021/04/09 07:03:46;;;;;;;6.28;2.30;;;;;;;4.49;40.50;93100.75;2071769;69;20144;-71
2021/04/09 07:06:12;;;;;;;8.57;3.00;;;;;;;4.71;38.55;93094.38;2075185;69;20254;-71
2021/04/09 07:08:42;;;;;;;12.15;3.97;;;;;;;5.25;37.51;93099.72;2074929;69;20140;-71
2021/04/09 07:11:09;;;;;;;16.13;5.40;;;;;;;5.69;36.81;93100.00;2074980;69;20523;-71
2021/04/09 07:13:54;;;;;;;11.63;5.80;;;;;;;5.75;36.60;93080.94;2075026;69;20136;-72
2021/04/09 07:16:20;;;;;;;18.63;7.75;;;;;;;6.26;35.29;93081.66;2071516;69;20164;-72
2021/04/09 07:18:52;;;;;;;13.57;5.50;;;;;;;6.53;34.81;93082.50;2074884;69;20143;-71
2021/04/09 07:21:29;;;;;;;13.50;4.28;;;;;;;6.87;34.75;93076.16;2075056;69;20151;-72
2021/04/09 07:24:13;;;;;;;19.55;5.28;;;;;;;6.92;33.90;93073.66;2068796;69;20148;-72
2021/04/09 07:26:50;;;;;;;7.25;4.13;;;;;;;7.76;33.11;93084.47;2075289;69;20534;-73
2021/04/09 07:29:31;;;;;;;16.85;4.78;;;;;;;7.42;33.03;93071.31;2074904;69;20166;-71
2021/04/09 07:32:17;;;;;;;18.98;4.53;;;;;;;7.77;31.60;93071.94;2074976;69;20156;-71
2021/04/09 07:35:02;;;;;;;14.02;3.80;;;;;;;7.24;30.79;93072.69;2071933;69;20144;-72
2021/04/09 07:37:30;;;;;;;10.18;3.90;;;;;;;7.97;31.39;93072.75;2074897;69;20558;-71
2021/04/09 07:40:00;;;;;;;9.15;3.53;;;;;;;8.54;29.96;93065.06;2071597;69;20156;-72
2021/04/09 07:42:37;;;;;;;15.02;4.40;;;;;;;8.90;29.31;93056.53;2075058;69;20198;-72
2021/04/09 07:45:10;;;;;;;7.82;3.55;;;;;;;8.84;28.00;93056.09;2074815;69;20233;-72
2021/04/09 07:47:36;;;;;;;11.38;3.78;;;;;;;9.68;26.90;93056.38;2074974;69;20147;-73
2021/04/09 07:50:05;;;;;;;12.25;4.07;;;;;;;9.61;27.86;93049.56;2074930;69;20629;-71
2021/04/09 07:52:41;;;;;;;8.75;3.80;;;;;;;8.92;28.30;93050.31;2074896;69;20143;-72
2021/04/09 07:55:17;;;;;;;11.13;4.63;;;;;;;7.86;30.09;93060.03;2074940;69;20163;-72
2021/04/09 07:57:43;;;;;;;14.27;4.43;;;;;;;9.81;28.61;93060.75;2071530;69;20212;-72
2021/04/09 08:00:26;;;;;;;9.63;4.30;;;;;;;10.33;26.33;93046.75;2074739;69;20148;-71
2021/04/09 08:02:52;;;;;;;;;;;;;;;10.80;26.55;93058.28;2071769;69;20146;-71
2021/04/09 08:05:21;;;;;;;9.68;3.38;;;;;;;10.87;26.04;93054.53;2071521;69;20051;-71
2021/04/09 08:07:47;;;;;;;6.75;2.65;;;;;;;10.18;23.64;93053.47;2074884;69;20182;-71
2021/04/09 08:10:17;;;;;;;13.40;4.63;;;;;;;10.41;26.96;93052.94;2074905;69;20517;-72
2021/04/09 08:12:50;;;;;;;9.93;4.00;;;;;;;12.30;23.82;93051.44;2074975;69;20151;-71
2021/04/09 08:15:21;;;;;;;7.07;3.40;;;;;;;12.51;22.62;93045.66;2071475;69;20599;-71
2021/04/09 08:18:01;;;;;;;7.30;2.97;;;;;;;12.58;22.70;93044.63;2074917;69;20148;-71
2021/04/09 08:20:29;;;;;;;6.65;2.60;;;;;;;13.05;22.37;93036.03;2075277;69;20167;-72
2021/04/09 08:22:59;;;;;;;5.35;3.50;;;;;;;11.68;22.37;93035.66;2072010;69;20514;-72
2021/04/09 08:25:25;;;;;;;5.07;2.20;;;;;;;12.43;21.54;93036.69;2075432;69;20249;-71
2021/04/09 08:27:52;;;;;;;5.25;2.20;;;;;;;13.23;21.91;93034.25;2072007;69;20148;-72
2021/04/09 08:30:18;;;;;;;3.85;2.08;;;;;;;13.83;22.57;93034.69;2075237;69;20136;-72
2021/04/09 08:32:45;;;;;;;4.97;2.53;;;;;;;14.02;24.36;93037.16;2075403;69;20216;-71
2021/04/09 08:35:11;;;;;;;6.18;2.65;;;;;;;15.03;22.42;93032.44;2075414;69;20144;-71
2021/04/09 08:37:37;;;;;;;6.50;2.10;;;;;;;15.36;21.59;93034.75;2071887;69;20303;-70
2021/04/09 08:40:04;;;;;;;6.50;1.90;;;;;;;15.09;21.46;93035.56;2075345;69;20140;-71
2021/04/09 08:42:33;;;;;;;5.72;1.70;;;;;;;16.33;20.77;93029.31;2075314;69;20219;-71
2021/04/09 08:45:01;;;;;;;5.30;1.77;;;;;;;17.77;18.20;93028.25;2075279;69;20164;-71
2021/04/09 08:47:27;;;;;;;4.95;1.80;;;;;;;16.40;18.65;93030.31;2075342;69;20160;-71
2021/04/09 08:49:53;;;;;;;5.13;1.58;;;;;;;16.62;18.12;93014.25;2075356;69;20139;-72
2021/04/09 08:52:19;;;;;;;5.75;1.92;;;;;;;17.58;17.54;93023.19;2075421;69;20152;-71
2021/04/09 08:54:55;;;;;;;7.32;1.88;;;;;;;17.63;17.44;93016.28;2075428;69;20201;-71
2021/04/09 08:57:36;;;;;;;4.53;1.60;;;;;;;15.53;18.17;93007.88;2075253;69;20500;-72
2021/04/09 09:00:10;;;;;;;3.85;1.95;;;;;;;17.86;17.24;93010.09;2071850;69;20152;-70
2021/04/09 09:02:44;;;;;;;4.55;1.92;;;;;;;16.74;16.41;93003.44;2075320;69;20245;-72
2021/04/09 09:05:20;;;;;;;7.55;2.15;;;;;;;17.47;17.81;93005.72;2075327;69;20139;-73
2021/04/09 09:07:46;;;;;;;5.70;1.90;;;;;;;16.61;17.50;92995.72;2075269;69;20158;-72
2021/04/09 09:10:30;;;;;;;4.78;1.90;;;;;;;18.35;17.00;92994.13;2075288;69;20584;-77
2021/04/09 09:13:01;;;;;;;5.75;1.90;;;;;;;18.71;16.11;92989.03;2069105;69;20148;-73
2021/04/09 09:15:58;;;;;;;7.90;1.83;;;;;;;19.23;15.35;92984.41;2075146;69;20238;-76
2021/04/09 09:18:24;;;;;;;5.65;1.85;;;;;;;16.58;16.56;92979.97;2061039;69;20141;-73
2021/04/09 09:21:05;;;;;;;2.70;1.40;;;;;;;19.09;16.00;92981.06;2061036;69;20137;-73
2021/04/09 09:24:18;;;;;;;4.72;1.35;;;;;;;18.04;14.60;92967.34;2061126;69;20145;-75
2021/04/09 09:26:47;;;;;;;5.50;1.92;;;;;;;17.60;16.93;92964.25;2060456;69;20141;-72
2021/04/09 09:29:18;;;;;;;4.88;1.80;;;;;;;19.89;15.19;92958.69;2060961;69;20594;-70
2021/04/09 09:31:47;;;;;;;3.15;1.48;;;;;;;19.07;15.44;92954.59;2061001;69;20168;-72
2021/04/09 09:34:21;;;;;;;3.35;1.50;;;;;;;20.78;15.30;92954.06;2061045;69;20140;-73
2021/04/09 09:37:11;;;;;;;4.70;2.03;;;;;;;20.06;15.57;92954.16;2060920;69;20144;-75
2021/04/09 09:40:02;;;;;;;3.80;1.50;;;;;;;21.36;14.57;92948.44;2058289;69;20196;-74
2021/04/09 09:42:30;;;;;;;2.70;2.10;;;;;;;21.85;14.48;92943.84;2060993;69;20141;-72
2021/04/09 09:45:00;;;;;;;7.88;3.58;;;;;;;18.47;16.00;92938.31;2060893;69;20264;-72
2021/04/09 09:47:44;;;;;;;3.67;1.85;;;;;;;19.20;14.77;92933.66;2058146;69;20149;-72
2021/04/09 09:50:13;;;;;;;3.38;1.70;;;;;;;17.78;15.69;92932.94;2061018;69;20153;-73
2021/04/09 09:53:07;;;;;;;4.80;1.80;;;;;;;19.65;16.18;92932.22;2060971;69;20645;-74
2021/04/09 09:55:36;;;;;;;3.30;1.88;;;;;;;19.25;16.28;92924.53;2072658;69;20152;-76
2021/04/09 09:58:19;;;;;;;3.80;1.98;;;;;;;17.32;17.69;92926.13;2075122;69;20131;-74
2021/04/09 10:01:01;;;;;;;2.90;1.85;;;;;;;19.55;16.19;92926.88;2075021;69;20143;-73
2021/04/09 10:03:34;;;;;;;4.05;1.83;;;;;;;19.94;15.74;92920.25;2075189;69;20210;-72
2021/04/09 10:06:13;;;;;;;5.90;1.75;;;;;;;19.98;15.43;92917.53;2071796;69;20144;-70
2021/04/09 10:08:42;;;;;;;4.30;1.83;;;;;;;18.26;16.85;92908.34;2075182;69;20140;-69
2021/04/09 10:11:17;;;;;;;4.63;1.92;;;;;;;19.99;16.69;92904.69;2075146;69;20523;-75
2021/04/09 10:13:44;;;;;;;2.70;1.35;;;;;;;22.92;13.64;92900.91;2075129;69;20136;-72
2021/04/09 10:16:10;;;;;;;2.95;1.38;;;;;;;22.80;14.01;92893.50;2074999;69;20679;-75
2021/04/09 10:18:37;;;;;;;5.68;1.55;;;;;;;23.27;13.18;92888.56;2075181;69;20158;-74
2021/04/09 10:21:15;;;;;;;5.03;1.60;;;;;;;24.46;14.54;92888.16;2075092;69;20188;-73
2021/04/09 10:23:43;;;;;;;3.95;1.70;;;;;;;23.96;13.17;92883.19;2075082;69;20132;-76
2021/04/09 10:26:10;;;;;;;3.63;1.40;;;;;;;22.99;12.70;92870.88;2075125;69;20155;-71
2021/04/09 10:28:37;;;;;;;3.72;1.48;;;;;;;25.32;12.10;92874.66;2075077;69;20176;-73
2021/04/09 10:31:09;;;;;;;3.85;1.50;;;;;;;24.98;11.26;92869.31;2074980;69;20148;-73
2021/04/09 10:33:37;;;;;;;2.78;1.40;;;;;;;24.42;11.47;92862.25;2075117;69;20238;-74
2021/04/09 10:36:21;;;;;;;3.55;1.50;;;;;;;25.56;11.95;92874.13;2075012;69;20148;-71
2021/04/09 10:38:50;;;;;;;2.97;1.42;;;;;;;27.85;10.70;92869.91;2074992;69;20167;-74
2021/04/09 10:41:29;;;;;;;2.05;1.30;;;;;;;28.89;9.70;92858.00;2074885;69;20139;-73
2021/04/09 10:44:03;;;;;;;6.20;2.00;;;;;;;30.55;9.93;92866.09;2071565;69;20612;-73
2021/04/09 10:46:30;;;;;;;2.22;1.25;;;;;;;30.08;9.27;92857.88;2074970;69;20146;-74
2021/04/09 10:49:08;;;;;;;6.35;3.20;;;;;;;32.82;8.93;92863.28;2074847;69;20160;-70
2021/04/09 10:51:47;;;;;;;2.55;1.40;;;;;;;32.99;8.34;92857.84;2071271;69;20139;-72
2021/04/09 10:54:18;;;;;;;3.83;1.80;;;;;;;30.84;8.93;92852.69;2074807;69;20202;-71
2021/04/09 10:56:57;;;;;;;4.90;1.80;;;;;;;28.41;8.96;92842.31;2074431;69;20603;-71
2021/04/09 10:59:28;;;;;;;4.25;1.35;;;;;;;30.35;8.55;92840.94;2074679;69;20152;-72
2021/04/09 11:01:54;;;;;;;4.25;1.67;;;;;;;30.42;8.66;92833.56;2074648;69;20231;-72
2021/04/09 11:04:20;;;;;;;3.25;1.70;;;;;;;30.93;8.10;92830.06;2074816;69;20270;-71
2021/04/09 11:06:55;;;;;;;4.78;1.83;;;;;;;33.36;7.53;92822.78;2071406;69;20360;-71
2021/04/09 11:09:21;;;;;;;2.80;1.83;;;;;;;32.09;8.03;92818.81;2074764;69;20358;-73
2021/04/09 11:11:47;;;;;;;3.50;2.60;;;;;;;31.84;8.17;92810.53;2074689;69;20160;-73
2021/04/09 11:14:18;;;;;;;3.38;1.70;;;;;;;30.99;7.84;92806.72;2074663;69;20153;-71
2021/04/09 11:16:54;;;;;;;3.78;1.65;;;;;;;27.24;9.84;92792.59;2074832;69;20147;-73
2021/04/09 11:19:32;;;;;;;1.92;1.48;;;;;;;32.52;9.43;92797.59;2074949;69;20195;-70
2021/04/09 11:21:58;;;;;;;6.20;1.92;;;;;;;32.59;8.53;92787.97;2074781;69;20590;-71
2021/04/09 11:24:33;;;;;;;4.68;1.70;;;;;;;31.14;7.99;92787.59;2074856;69;20623;-74
2021/04/09 11:27:01;;;;;;;2.35;1.40;;;;;;;32.11;7.43;92792.53;2074826;69;20163;-70
2021/04/09 11:29:32;;;;;;;2.63;1.42;;;;;;;31.31;7.43;92778.66;2074846;69;20207;-72
2021/04/09 11:32:11;;;;;;;3.65;1.52;;;;;;;30.38;8.16;92775.56;2074795;69;20603;-72
2021/04/09 11:34:39;;;;;;;2.70;1.35;;;;;;;31.10;8.01;92772.41;2074857;69;20226;-71
2021/04/09 11:37:06;;;;;;;4.95;1.50;;;;;;;30.81;7.50;92769.91;2071807;69;20611;-74
2021/04/09 11:39:32;;;;;;;4.82;1.50;;;;;;;31.08;8.36;92755.72;2068043;69;20214;-71
2021/04/09 11:42:08;;;;;;;2.08;1.15;;;;;;;32.08;7.52;92762.06;2068145;69;20614;-72
2021/04/09 11:44:36;;;;;;;2.95;1.15;;;;;;;29.71;8.15;92753.78;2067989;69;20157;-69